sensor_id;sensor_type;location;lat;lon;timestamp;pressure;altitude;pressure_sealevel;temperature;humidity
73003;BME280;61184;54.356;-8.550;2022-11-20T00:01:43;100089.23;;;19.61;36.12
73003;BME280;61184;54.356;-8.550;2022-11-20T00:06:34;100091.38;;;19.53;35.85
73003;BME280;61184;54.356;-8.550;2022-11-20T00:09:02;100090.90;;;19.75;35.83
73003;BME280;61184;54.356;-8.550;2022-11-20T00:11:27;100101.00;;;19.77;35.80
73003;BME280;61184;54.356;-8.550;2022-11-20T00:13:52;100106.67;;;19.43;35.91
73003;BME280;61184;54.356;-8.550;2022-11-20T00:16:18;100112.08;;;19.58;36.00
73003;BME280;61184;54.356;-8.550;2022-11-20T00:18:51;100117.28;;;19.66;35.86
73003;BME280;61184;54.356;-8.550;2022-11-20T00:23:33;100127.73;;;19.31;35.95
73003;BME280;61184;54.356;-8.550;2022-11-20T00:26:02;100125.85;;;19.33;35.91
73003;BME280;61184;54.356;-8.550;2022-11-20T00:28:23;100126.54;;;19.63;35.84
73003;BME280;61184;54.356;-8.550;2022-11-20T00:30:49;100132.95;;;19.66;35.74
73003;BME280;61184;54.356;-8.550;2022-11-20T00:33:15;100129.70;;;19.43;36.04
73003;BME280;61184;54.356;-8.550;2022-11-20T00:35:40;100133.98;;;19.24;36.26
73003;BME280;61184;54.356;-8.550;2022-11-20T00:38:19;100145.46;;;19.45;35.95
73003;BME280;61184;54.356;-8.550;2022-11-20T00:40:31;100151.94;;;19.52;35.85
73003;BME280;61184;54.356;-8.550;2022-11-20T00:43:02;100151.42;;;19.39;36.01
73003;BME280;61184;54.356;-8.550;2022-11-20T00:45:22;100152.07;;;19.42;35.93
73003;BME280;61184;54.356;-8.550;2022-11-20T00:47:47;100148.59;;;19.31;36.09
73003;BME280;61184;54.356;-8.550;2022-11-20T00:52:50;100136.04;;;19.12;35.99
73003;BME280;61184;54.356;-8.550;2022-11-20T00:55:04;100130.05;;;19.37;35.98
73003;BME280;61184;54.356;-8.550;2022-11-20T00:57:29;100127.39;;;19.32;36.00
73003;BME280;61184;54.356;-8.550;2022-11-20T01:02:20;100151.05;;;19.13;35.92
73003;BME280;61184;54.356;-8.550;2022-11-20T01:04:45;100159.65;;;19.32;35.94
73003;BME280;61184;54.356;-8.550;2022-11-20T01:07:11;100164.79;;;19.33;35.93
73003;BME280;61184;54.356;-8.550;2022-11-20T01:09:37;100158.74;;;19.43;35.78
73003;BME280;61184;54.356;-8.550;2022-11-20T01:12:03;100151.91;;;19.22;36.03
73003;BME280;61184;54.356;-8.550;2022-11-20T01:14:27;100143.70;;;19.14;36.24
73003;BME280;61184;54.356;-8.550;2022-11-20T01:16:53;100134.08;;;19.11;36.19
73003;BME280;61184;54.356;-8.550;2022-11-20T01:19:23;100117.09;;;19.31;35.88
73003;BME280;61184;54.356;-8.550;2022-11-20T01:21:53;100119.00;;;19.19;36.04
73003;BME280;61184;54.356;-8.550;2022-11-20T01:24:12;100105.72;;;19.20;36.02
73003;BME280;61184;54.356;-8.550;2022-11-20T01:26:36;100112.30;;;19.13;36.11
73003;BME280;61184;54.356;-8.550;2022-11-20T01:29:01;100113.51;;;19.19;35.99
73003;BME280;61184;54.356;-8.550;2022-11-20T01:31:31;100112.04;;;19.16;36.33
73003;BME280;61184;54.356;-8.550;2022-11-20T01:33:53;100111.09;;;19.12;36.08
73003;BME280;61184;54.356;-8.550;2022-11-20T01:36:26;100103.14;;;19.13;36.06
73003;BME280;61184;54.356;-8.550;2022-11-20T01:38:43;100105.40;;;18.90;36.33
73003;BME280;61184;54.356;-8.550;2022-11-20T01:41:08;100105.86;;;18.96;36.21
73003;BME280;61184;54.356;-8.550;2022-11-20T01:43:34;100103.93;;;19.01;36.14
73003;BME280;61184;54.356;-8.550;2022-11-20T01:46:03;100101.30;;;18.82;36.40
73003;BME280;61184;54.356;-8.550;2022-11-20T01:48:26;100098.41;;;18.85;36.35
73003;BME280;61184;54.356;-8.550;2022-11-20T01:50:51;100099.69;;;18.91;36.25
73003;BME280;61184;54.356;-8.550;2022-11-20T01:53:17;100103.86;;;18.65;36.64
73003;BME280;61184;54.356;-8.550;2022-11-20T01:55:45;100108.29;;;18.64;36.68
73003;BME280;61184;54.356;-8.550;2022-11-20T01:58:06;100104.51;;;18.73;36.49
73003;BME280;61184;54.356;-8.550;2022-11-20T02:00:32;100100.67;;;18.65;36.61
73003;BME280;61184;54.356;-8.550;2022-11-20T02:03:06;100102.31;;;18.84;36.68
73003;BME280;61184;54.356;-8.550;2022-11-20T02:05:28;100102.83;;;18.69;36.56
73003;BME280;61184;54.356;-8.550;2022-11-20T02:07:48;100096.18;;;18.82;36.69
73003;BME280;61184;54.356;-8.550;2022-11-20T02:10:14;100089.11;;;18.76;36.74
73003;BME280;61184;54.356;-8.550;2022-11-20T02:12:39;100090.98;;;18.63;36.58
73003;BME280;61184;54.356;-8.550;2022-11-20T02:15:09;100090.94;;;18.68;36.51
73003;BME280;61184;54.356;-8.550;2022-11-20T02:17:30;100090.49;;;18.76;36.37
73003;BME280;61184;54.356;-8.550;2022-11-20T02:19:55;100083.35;;;18.63;36.54
73003;BME280;61184;54.356;-8.550;2022-11-20T02:22:30;100085.49;;;18.66;36.50
73003;BME280;61184;54.356;-8.550;2022-11-20T02:24:49;100090.64;;;18.69;36.43
73003;BME280;61184;54.356;-8.550;2022-11-20T02:27:13;100094.39;;;18.52;36.68
73003;BME280;61184;54.356;-8.550;2022-11-20T02:29:40;100103.33;;;18.85;36.53
73003;BME280;61184;54.356;-8.550;2022-11-20T02:32:03;100107.07;;;19.01;36.23
73003;BME280;61184;54.356;-8.550;2022-11-20T02:34:38;100112.96;;;18.88;36.43
73003;BME280;61184;54.356;-8.550;2022-11-20T02:36:54;100112.10;;;18.83;36.47
73003;BME280;61184;54.356;-8.550;2022-11-20T02:39:20;100112.56;;;18.65;36.73
73003;BME280;61184;54.356;-8.550;2022-11-20T02:41:53;100115.49;;;18.57;36.48
73003;BME280;61184;54.356;-8.550;2022-11-20T02:44:10;100111.02;;;18.58;36.44
73003;BME280;61184;54.356;-8.550;2022-11-20T02:46:36;100108.16;;;18.55;36.44
73003;BME280;61184;54.356;-8.550;2022-11-20T02:51:31;100103.13;;;18.53;36.47
73003;BME280;61184;54.356;-8.550;2022-11-20T02:53:52;100101.84;;;18.52;36.47
73003;BME280;61184;54.356;-8.550;2022-11-20T02:56:17;100100.55;;;18.78;36.46
73003;BME280;61184;54.356;-8.550;2022-11-20T02:58:51;100103.08;;;18.30;36.75
73003;BME280;61184;54.356;-8.550;2022-11-20T03:01:28;100103.78;;;18.73;36.49
73003;BME280;61184;54.356;-8.550;2022-11-20T03:03:34;100103.38;;;18.46;36.49
73003;BME280;61184;54.356;-8.550;2022-11-20T03:06:00;100104.60;;;18.43;36.53
73003;BME280;61184;54.356;-8.550;2022-11-20T03:08:25;100101.00;;;18.57;36.31
73003;BME280;61184;54.356;-8.550;2022-11-20T03:10:51;100099.48;;;18.66;36.51
73003;BME280;61184;54.356;-8.550;2022-11-20T03:13:16;100103.85;;;18.50;36.41
73003;BME280;61184;54.356;-8.550;2022-11-20T03:15:41;100105.80;;;18.65;36.52
73003;BME280;61184;54.356;-8.550;2022-11-20T03:18:07;100099.66;;;18.60;36.59
73003;BME280;61184;54.356;-8.550;2022-11-20T03:20:33;100096.74;;;18.67;36.45
73003;BME280;61184;54.356;-8.550;2022-11-20T03:25:23;100097.12;;;18.58;36.56
73003;BME280;61184;54.356;-8.550;2022-11-20T03:27:50;100098.63;;;18.77;36.64
73003;BME280;61184;54.356;-8.550;2022-11-20T03:32:52;100104.20;;;18.30;36.61
73003;BME280;61184;54.356;-8.550;2022-11-20T03:35:06;100105.21;;;18.30;36.57
73003;BME280;61184;54.356;-8.550;2022-11-20T03:37:41;100104.13;;;18.31;36.57
73003;BME280;61184;54.356;-8.550;2022-11-20T03:39:56;100102.86;;;18.58;36.53
73003;BME280;61184;54.356;-8.550;2022-11-20T03:42:21;100100.46;;;18.62;36.45
73003;BME280;61184;54.356;-8.550;2022-11-20T03:44:50;100102.35;;;18.50;36.62
73003;BME280;61184;54.356;-8.550;2022-11-20T03:47:12;100099.82;;;18.13;36.77
73003;BME280;61184;54.356;-8.550;2022-11-20T03:49:38;100097.12;;;18.29;36.52
73003;BME280;61184;54.356;-8.550;2022-11-20T03:52:03;100107.62;;;18.68;36.65
73003;BME280;61184;54.356;-8.550;2022-11-20T03:54:29;100103.64;;;18.72;36.58
73003;BME280;61184;54.356;-8.550;2022-11-20T03:56:54;100104.85;;;18.51;36.53
73003;BME280;61184;54.356;-8.550;2022-11-20T03:59:19;100111.15;;;18.50;36.53
73003;BME280;61184;54.356;-8.550;2022-11-20T04:01:45;100101.93;;;18.49;36.53
73003;BME280;61184;54.356;-8.550;2022-11-20T04:04:12;100091.91;;;18.44;36.62
73003;BME280;61184;54.356;-8.550;2022-11-20T04:06:38;100079.95;;;18.62;36.70
73003;BME280;61184;54.356;-8.550;2022-11-20T04:09:02;100074.58;;;18.50;36.55
73003;BME280;61184;54.356;-8.550;2022-11-20T04:11:30;100076.29;;;18.52;36.82
73003;BME280;61184;54.356;-8.550;2022-11-20T04:13:56;100078.43;;;18.42;36.63
73003;BME280;61184;54.356;-8.550;2022-11-20T04:16:22;100079.01;;;18.23;36.90
73003;BME280;61184;54.356;-8.550;2022-11-20T04:18:50;100074.77;;;18.12;36.72
73003;BME280;61184;54.356;-8.550;2022-11-20T04:21:10;100079.10;;;18.26;36.85
73003;BME280;61184;54.356;-8.550;2022-11-20T04:23:34;100086.52;;;18.36;36.69
73003;BME280;61184;54.356;-8.550;2022-11-20T04:26:03;100077.88;;;18.56;36.73
73003;BME280;61184;54.356;-8.550;2022-11-20T04:28:25;100076.18;;;18.25;36.83
73003;BME280;61184;54.356;-8.550;2022-11-20T04:30:51;100074.79;;;18.54;36.75
73003;BME280;61184;54.356;-8.550;2022-11-20T04:33:16;100075.41;;;18.27;36.76
73003;BME280;61184;54.356;-8.550;2022-11-20T04:35:42;100069.27;;;18.46;36.82
73003;BME280;61184;54.356;-8.550;2022-11-20T04:38:07;100066.17;;;17.86;36.98
73003;BME280;61184;54.356;-8.550;2022-11-20T04:40:32;100063.62;;;18.43;36.87
73003;BME280;61184;54.356;-8.550;2022-11-20T04:42:59;100064.78;;;18.41;36.89
73003;BME280;61184;54.356;-8.550;2022-11-20T04:45:24;100066.76;;;18.50;36.72
73003;BME280;61184;54.356;-8.550;2022-11-20T04:47:49;100064.22;;;18.43;36.79
73003;BME280;61184;54.356;-8.550;2022-11-20T04:50:15;100063.39;;;18.10;36.92
73003;BME280;61184;54.356;-8.550;2022-11-20T04:52:57;100066.47;;;17.89;36.89
73003;BME280;61184;54.356;-8.550;2022-11-20T04:55:08;100068.24;;;18.22;36.79
73003;BME280;61184;54.356;-8.550;2022-11-20T04:57:31;100066.08;;;18.30;37.00
73003;BME280;61184;54.356;-8.550;2022-11-20T04:59:56;100073.50;;;18.28;36.65
73003;BME280;61184;54.356;-8.550;2022-11-20T05:02:23;100074.02;;;18.03;36.67
73003;BME280;61184;54.356;-8.550;2022-11-20T05:04:48;100073.05;;;17.92;36.82
73003;BME280;61184;54.356;-8.550;2022-11-20T05:07:13;100065.64;;;18.33;36.90
73003;BME280;61184;54.356;-8.550;2022-11-20T05:09:38;100061.34;;;18.04;36.98
73003;BME280;61184;54.356;-8.550;2022-11-20T05:12:06;100057.21;;;17.95;36.75
73003;BME280;61184;54.356;-8.550;2022-11-20T05:14:50;100055.06;;;18.46;36.69
73003;BME280;61184;54.356;-8.550;2022-11-20T05:16:55;100050.07;;;18.01;36.99
73003;BME280;61184;54.356;-8.550;2022-11-20T05:19:21;100049.61;;;18.39;36.76
73003;BME280;61184;54.356;-8.550;2022-11-20T05:21:49;100049.79;;;18.27;36.93
73003;BME280;61184;54.356;-8.550;2022-11-20T05:24:11;100052.66;;;18.35;36.85
73003;BME280;61184;54.356;-8.550;2022-11-20T05:26:37;100063.70;;;18.38;36.81
73003;BME280;61184;54.356;-8.550;2022-11-20T05:29:02;100067.07;;;18.39;36.79
73003;BME280;61184;54.356;-8.550;2022-11-20T05:31:27;100054.67;;;18.38;36.80
73003;BME280;61184;54.356;-8.550;2022-11-20T05:33:54;100062.12;;;18.37;36.79
73003;BME280;61184;54.356;-8.550;2022-11-20T05:36:21;100047.13;;;18.29;36.87
73003;BME280;61184;54.356;-8.550;2022-11-20T05:38:44;100059.47;;;17.88;37.12
73003;BME280;61184;54.356;-8.550;2022-11-20T05:41:12;100078.29;;;18.26;36.89
73003;BME280;61184;54.356;-8.550;2022-11-20T05:43:36;100087.77;;;18.18;37.02
73003;BME280;61184;54.356;-8.550;2022-11-20T05:46:01;100089.10;;;18.28;36.87
73003;BME280;61184;54.356;-8.550;2022-11-20T05:48:41;100088.10;;;17.85;36.81
73003;BME280;61184;54.356;-8.550;2022-11-20T05:50:51;100083.78;;;18.26;36.92
73003;BME280;61184;54.356;-8.550;2022-11-20T05:53:17;100086.38;;;18.39;36.71
73003;BME280;61184;54.356;-8.550;2022-11-20T05:55:43;100074.21;;;18.01;36.90
73003;BME280;61184;54.356;-8.550;2022-11-20T05:58:08;100068.26;;;18.19;37.00
73003;BME280;61184;54.356;-8.550;2022-11-20T06:00:33;100064.12;;;18.09;37.14
73003;BME280;61184;54.356;-8.550;2022-11-20T06:02:59;100065.04;;;18.26;36.87
73003;BME280;61184;54.356;-8.550;2022-11-20T06:05:24;100062.17;;;18.29;36.80
73003;BME280;61184;54.356;-8.550;2022-11-20T06:07:50;100059.76;;;18.08;37.15
73003;BME280;61184;54.356;-8.550;2022-11-20T06:10:15;100060.85;;;17.90;37.01
73003;BME280;61184;54.356;-8.550;2022-11-20T06:12:46;100060.81;;;18.29;36.80
73003;BME280;61184;54.356;-8.550;2022-11-20T06:15:16;100052.48;;;18.02;36.85
73003;BME280;61184;54.356;-8.550;2022-11-20T06:17:31;100036.16;;;18.21;36.92
73003;BME280;61184;54.356;-8.550;2022-11-20T06:19:58;100042.01;;;17.95;36.89
73003;BME280;61184;54.356;-8.550;2022-11-20T06:22:24;100043.68;;;18.23;36.87
73003;BME280;61184;54.356;-8.550;2022-11-20T06:24:48;100040.93;;;17.80;37.15
73003;BME280;61184;54.356;-8.550;2022-11-20T06:27:14;100050.50;;;18.00;36.86
73003;BME280;61184;54.356;-8.550;2022-11-20T06:29:39;100050.87;;;18.41;36.93
73003;BME280;61184;54.356;-8.550;2022-11-20T06:32:04;100045.30;;;18.13;36.98
73003;BME280;61184;54.356;-8.550;2022-11-20T06:34:30;100036.88;;;18.20;36.90
73003;BME280;61184;54.356;-8.550;2022-11-20T06:36:55;100037.12;;;17.99;37.20
73003;BME280;61184;54.356;-8.550;2022-11-20T06:39:21;100030.84;;;17.84;36.99
73003;BME280;61184;54.356;-8.550;2022-11-20T06:41:46;100032.83;;;18.11;36.97
73003;BME280;61184;54.356;-8.550;2022-11-20T06:44:12;100024.81;;;17.97;37.18
73003;BME280;61184;54.356;-8.550;2022-11-20T06:46:37;100019.15;;;18.06;37.03
73003;BME280;61184;54.356;-8.550;2022-11-20T06:49:06;100020.49;;;17.77;37.07
73003;BME280;61184;54.356;-8.550;2022-11-20T06:51:34;100027.36;;;18.03;37.08
73003;BME280;61184;54.356;-8.550;2022-11-20T06:53:54;100028.08;;;17.64;36.93
73003;BME280;61184;54.356;-8.550;2022-11-20T06:56:19;100032.09;;;18.12;36.92
73003;BME280;61184;54.356;-8.550;2022-11-20T06:58:45;100030.17;;;18.10;36.92
73003;BME280;61184;54.356;-8.550;2022-11-20T07:01:14;100021.98;;;18.08;36.93
73003;BME280;61184;54.356;-8.550;2022-11-20T07:03:36;100017.39;;;18.09;36.91
73003;BME280;61184;54.356;-8.550;2022-11-20T07:06:02;100017.87;;;17.79;37.01
73003;BME280;61184;54.356;-8.550;2022-11-20T07:08:28;100017.94;;;17.88;37.25
73003;BME280;61184;54.356;-8.550;2022-11-20T07:10:52;100022.97;;;17.79;36.97
73003;BME280;61184;54.356;-8.550;2022-11-20T07:13:18;100021.78;;;18.03;36.99
73003;BME280;61184;54.356;-8.550;2022-11-20T07:15:44;100020.54;;;18.02;37.00
73003;BME280;61184;54.356;-8.550;2022-11-20T07:18:08;100023.87;;;18.00;37.01
73003;BME280;61184;54.356;-8.550;2022-11-20T07:20:35;100028.96;;;17.90;37.19
73003;BME280;61184;54.356;-8.550;2022-11-20T07:22:59;100029.57;;;17.87;37.20
73003;BME280;61184;54.356;-8.550;2022-11-20T07:25:26;100026.58;;;17.89;37.19
73003;BME280;61184;54.356;-8.550;2022-11-20T07:27:51;100019.07;;;18.24;36.97
73003;BME280;61184;54.356;-8.550;2022-11-20T07:30:16;100020.87;;;17.88;37.16
73003;BME280;61184;54.356;-8.550;2022-11-20T07:32:41;100026.13;;;17.86;37.18
73003;BME280;61184;54.356;-8.550;2022-11-20T07:35:07;100024.42;;;17.85;37.21
73003;BME280;61184;54.356;-8.550;2022-11-20T07:37:43;100029.47;;;17.83;37.21
73003;BME280;61184;54.356;-8.550;2022-11-20T07:39:58;100033.42;;;17.85;37.18
73003;BME280;61184;54.356;-8.550;2022-11-20T07:42:23;100034.97;;;17.88;37.14
73003;BME280;61184;54.356;-8.550;2022-11-20T07:44:49;100030.71;;;17.78;37.23
73003;BME280;61184;54.356;-8.550;2022-11-20T07:47:14;100032.85;;;17.90;37.08
73003;BME280;61184;54.356;-8.550;2022-11-20T07:49:39;100030.00;;;17.87;37.06
73003;BME280;61184;54.356;-8.550;2022-11-20T07:52:05;100029.21;;;17.68;37.33
73003;BME280;61184;54.356;-8.550;2022-11-20T07:54:30;100025.72;;;17.81;37.14
73003;BME280;61184;54.356;-8.550;2022-11-20T07:56:56;100025.64;;;17.82;37.12
73003;BME280;61184;54.356;-8.550;2022-11-20T07:59:21;100027.81;;;17.90;36.96
73003;BME280;61184;54.356;-8.550;2022-11-20T08:01:47;100025.44;;;17.72;37.21
73003;BME280;61184;54.356;-8.550;2022-11-20T08:04:12;100028.89;;;17.81;37.08
73003;BME280;61184;54.356;-8.550;2022-11-20T08:06:38;100023.48;;;17.76;37.14
73003;BME280;61184;54.356;-8.550;2022-11-20T08:09:03;100018.87;;;17.76;37.11
73003;BME280;61184;54.356;-8.550;2022-11-20T08:11:29;100019.69;;;17.67;37.26
73003;BME280;61184;54.356;-8.550;2022-11-20T08:13:55;100025.67;;;17.55;37.40
73003;BME280;61184;54.356;-8.550;2022-11-20T08:16:20;100028.77;;;17.79;37.07
73003;BME280;61184;54.356;-8.550;2022-11-20T08:18:45;100032.78;;;18.05;36.99
73003;BME280;61184;54.356;-8.550;2022-11-20T08:21:10;100027.36;;;17.78;37.34
73003;BME280;61184;54.356;-8.550;2022-11-20T08:23:42;100021.79;;;17.66;37.18
73003;BME280;61184;54.356;-8.550;2022-11-20T08:26:01;100026.94;;;17.63;37.19
73003;BME280;61184;54.356;-8.550;2022-11-20T08:28:31;100027.47;;;17.95;37.05
73003;BME280;61184;54.356;-8.550;2022-11-20T08:30:58;100034.30;;;17.80;36.89
73003;BME280;61184;54.356;-8.550;2022-11-20T08:33:24;100033.85;;;18.09;36.81
73003;BME280;61184;54.356;-8.550;2022-11-20T08:35:43;100038.31;;;17.88;37.10
73003;BME280;61184;54.356;-8.550;2022-11-20T08:38:09;100034.10;;;17.62;37.12
73003;BME280;61184;54.356;-8.550;2022-11-20T08:40:34;100030.93;;;17.69;37.01
73003;BME280;61184;54.356;-8.550;2022-11-20T08:43:00;100022.95;;;17.58;37.18
73003;BME280;61184;54.356;-8.550;2022-11-20T08:45:29;100020.30;;;17.67;37.02
73003;BME280;61184;54.356;-8.550;2022-11-20T08:47:51;100013.73;;;17.70;36.96
73003;BME280;61184;54.356;-8.550;2022-11-20T08:50:17;100012.66;;;17.87;37.04
73003;BME280;61184;54.356;-8.550;2022-11-20T08:52:42;100015.36;;;17.87;37.05
73003;BME280;61184;54.356;-8.550;2022-11-20T08:55:12;100026.91;;;17.90;37.01
73003;BME280;61184;54.356;-8.550;2022-11-20T08:57:42;100030.74;;;17.52;37.20
73003;BME280;61184;54.356;-8.550;2022-11-20T08:59:59;100039.76;;;17.87;37.01
73003;BME280;61184;54.356;-8.550;2022-11-20T09:02:23;100051.26;;;17.50;37.19
73003;BME280;61184;54.356;-8.550;2022-11-20T09:04:49;100038.42;;;17.88;36.98
73003;BME280;61184;54.356;-8.550;2022-11-20T09:07:19;100039.30;;;17.49;37.20
73003;BME280;61184;54.356;-8.550;2022-11-20T09:09:40;100027.81;;;17.69;36.88
73003;BME280;61184;54.356;-8.550;2022-11-20T09:12:05;100033.00;;;17.78;36.76
73003;BME280;61184;54.356;-8.550;2022-11-20T09:14:31;100035.48;;;17.99;36.82
73003;BME280;61184;54.356;-8.550;2022-11-20T09:17:00;100034.69;;;17.59;37.04
73003;BME280;61184;54.356;-8.550;2022-11-20T09:19:24;100031.97;;;17.75;36.81
73003;BME280;61184;54.356;-8.550;2022-11-20T09:21:47;100025.66;;;17.72;36.80
73003;BME280;61184;54.356;-8.550;2022-11-20T09:24:13;100028.04;;;17.72;36.79
73003;BME280;61184;54.356;-8.550;2022-11-20T09:26:38;100021.47;;;17.55;37.05
73003;BME280;61184;54.356;-8.550;2022-11-20T09:29:04;100015.00;;;17.86;36.95
73003;BME280;61184;54.356;-8.550;2022-11-20T09:31:29;100022.65;;;17.60;36.99
73003;BME280;61184;54.356;-8.550;2022-11-20T09:34:02;100030.93;;;17.71;36.89
73003;BME280;61184;54.356;-8.550;2022-11-20T09:36:20;100035.04;;;17.45;36.91
73003;BME280;61184;54.356;-8.550;2022-11-20T09:38:48;100040.44;;;17.85;37.01
73003;BME280;61184;54.356;-8.550;2022-11-20T09:43:57;100053.56;;;17.90;36.94
73003;BME280;61184;54.356;-8.550;2022-11-20T09:46:09;100053.46;;;17.78;36.74
73003;BME280;61184;54.356;-8.550;2022-11-20T09:48:40;100061.25;;;18.02;36.75
73003;BME280;61184;54.356;-8.550;2022-11-20T09:50:58;100062.93;;;17.95;36.86
73003;BME280;61184;54.356;-8.550;2022-11-20T09:53:27;100063.07;;;17.63;36.95
73003;BME280;61184;54.356;-8.550;2022-11-20T09:55:46;100064.68;;;17.65;36.93
73003;BME280;61184;54.356;-8.550;2022-11-20T09:58:18;100069.85;;;17.58;37.01
73003;BME280;61184;54.356;-8.550;2022-11-20T10:00:52;100072.12;;;17.99;37.12
73003;BME280;61184;54.356;-8.550;2022-11-20T10:03:06;100078.39;;;17.67;36.90
73003;BME280;61184;54.356;-8.550;2022-11-20T10:05:30;100076.72;;;17.69;36.81
73003;BME280;61184;54.356;-8.550;2022-11-20T10:07:55;100069.58;;;17.95;36.76
73003;BME280;61184;54.356;-8.550;2022-11-20T10:10:22;100062.41;;;17.60;36.92
73003;BME280;61184;54.356;-8.550;2022-11-20T10:12:56;100063.99;;;17.83;36.91
73003;BME280;61184;54.356;-8.550;2022-11-20T10:15:17;100064.40;;;17.50;37.02
73003;BME280;61184;54.356;-8.550;2022-11-20T10:20:25;100058.21;;;17.43;37.13
73003;BME280;61184;54.356;-8.550;2022-11-20T10:22:35;100057.84;;;17.59;36.90
73003;BME280;61184;54.356;-8.550;2022-11-20T10:24:56;100061.72;;;17.59;36.85
73003;BME280;61184;54.356;-8.550;2022-11-20T10:27:35;100071.88;;;18.11;36.77
73003;BME280;61184;54.356;-8.550;2022-11-20T10:29:42;100075.03;;;17.57;36.87
73003;BME280;61184;54.356;-8.550;2022-11-20T10:32:14;100076.97;;;17.59;36.85
73003;BME280;61184;54.356;-8.550;2022-11-20T10:34:44;100072.53;;;17.91;36.75
73003;BME280;61184;54.356;-8.550;2022-11-20T10:37:00;100075.48;;;17.69;36.70
73003;BME280;61184;54.356;-8.550;2022-11-20T10:39:30;100068.97;;;17.68;36.69
73003;BME280;61184;54.356;-8.550;2022-11-20T10:41:50;100067.12;;;17.83;36.80
73003;BME280;61184;54.356;-8.550;2022-11-20T10:44:15;100072.90;;;17.86;36.77
73003;BME280;61184;54.356;-8.550;2022-11-20T10:46:40;100071.76;;;17.80;36.87
73003;BME280;61184;54.356;-8.550;2022-11-20T10:49:10;100074.64;;;17.54;36.89
73003;BME280;61184;54.356;-8.550;2022-11-20T10:51:39;100080.21;;;17.68;36.69
73003;BME280;61184;54.356;-8.550;2022-11-20T10:54:03;100081.29;;;17.56;36.82
73003;BME280;61184;54.356;-8.550;2022-11-20T10:56:24;100080.75;;;17.70;36.65
73003;BME280;61184;54.356;-8.550;2022-11-20T10:59:04;100085.37;;;17.54;36.85
73003;BME280;61184;54.356;-8.550;2022-11-20T11:01:15;100091.26;;;17.84;36.77
73003;BME280;61184;54.356;-8.550;2022-11-20T11:03:37;100094.60;;;17.63;36.72
73003;BME280;61184;54.356;-8.550;2022-11-20T11:06:08;100096.83;;;17.77;36.88
73003;BME280;61184;54.356;-8.550;2022-11-20T11:08:32;100091.61;;;17.58;36.78
73003;BME280;61184;54.356;-8.550;2022-11-20T11:10:58;100101.86;;;17.76;36.52
73003;BME280;61184;54.356;-8.550;2022-11-20T11:13:20;100106.07;;;17.77;36.50
73003;BME280;61184;54.356;-8.550;2022-11-20T11:15:44;100114.83;;;18.02;36.49
73003;BME280;61184;54.356;-8.550;2022-11-20T11:18:11;100119.36;;;17.48;36.58
73003;BME280;61184;54.356;-8.550;2022-11-20T11:20:35;100115.02;;;17.75;36.54
73003;BME280;61184;54.356;-8.550;2022-11-20T11:23:03;100116.80;;;17.60;36.75
73003;BME280;61184;54.356;-8.550;2022-11-20T11:25:55;100115.87;;;17.63;36.72
73003;BME280;61184;54.356;-8.550;2022-11-20T11:27:54;100114.09;;;17.73;36.59
73003;BME280;61184;54.356;-8.550;2022-11-20T11:30:22;100109.56;;;17.68;36.66
73003;BME280;61184;54.356;-8.550;2022-11-20T11:32:43;100103.40;;;17.64;36.69
73003;BME280;61184;54.356;-8.550;2022-11-20T11:35:21;100094.58;;;17.97;36.60
73003;BME280;61184;54.356;-8.550;2022-11-20T11:37:35;100090.45;;;17.53;36.89
73003;BME280;61184;54.356;-8.550;2022-11-20T11:40:03;100091.71;;;17.87;36.43
73003;BME280;61184;54.356;-8.550;2022-11-20T11:42:25;100094.34;;;17.67;36.67
73003;BME280;61184;54.356;-8.550;2022-11-20T11:44:50;100091.23;;;17.67;36.71
73003;BME280;61184;54.356;-8.550;2022-11-20T11:47:24;100097.95;;;17.74;36.61
73003;BME280;61184;54.356;-8.550;2022-11-20T11:49:41;100090.80;;;17.71;36.62
73003;BME280;61184;54.356;-8.550;2022-11-20T11:52:12;100097.88;;;17.80;36.51
73003;BME280;61184;54.356;-8.550;2022-11-20T11:54:38;100100.05;;;17.90;36.35
73003;BME280;61184;54.356;-8.550;2022-11-20T11:57:01;100101.22;;;18.07;36.45
73003;BME280;61184;54.356;-8.550;2022-11-20T11:59:27;100103.12;;;18.14;36.36
73003;BME280;61184;54.356;-8.550;2022-11-20T12:01:53;100108.82;;;18.02;36.52
73003;BME280;61184;54.356;-8.550;2022-11-20T12:04:19;100114.74;;;17.67;36.71
73003;BME280;61184;54.356;-8.550;2022-11-20T12:06:44;100119.72;;;18.07;36.52
73003;BME280;61184;54.356;-8.550;2022-11-20T12:09:10;100118.86;;;18.01;36.25
73003;BME280;61184;54.356;-8.550;2022-11-20T12:11:34;100115.44;;;17.96;36.27
73003;BME280;61184;54.356;-8.550;2022-11-20T12:14:04;100117.61;;;17.73;36.64
73003;BME280;61184;54.356;-8.550;2022-11-20T12:16:21;100120.38;;;17.97;36.31
73003;BME280;61184;54.356;-8.550;2022-11-20T12:18:52;100116.75;;;17.85;36.47
73003;BME280;61184;54.356;-8.550;2022-11-20T12:21:19;100121.40;;;17.74;36.60
73003;BME280;61184;54.356;-8.550;2022-11-20T12:26:06;100118.05;;;18.06;36.18
73003;BME280;61184;54.356;-8.550;2022-11-20T12:28:43;100120.22;;;17.98;36.29
73003;BME280;61184;54.356;-8.550;2022-11-20T12:31:08;100121.62;;;17.92;36.40
73003;BME280;61184;54.356;-8.550;2022-11-20T12:35:58;100120.53;;;18.01;36.28
73003;BME280;61184;54.356;-8.550;2022-11-20T12:40:46;100128.76;;;17.79;36.28
73003;BME280;61184;54.356;-8.550;2022-11-20T12:43:09;100128.01;;;18.04;36.26
73003;BME280;61184;54.356;-8.550;2022-11-20T12:48:06;100131.24;;;18.13;36.29
73003;BME280;61184;54.356;-8.550;2022-11-20T12:50:24;100127.18;;;18.11;36.31
73003;BME280;61184;54.356;-8.550;2022-11-20T12:52:51;100125.02;;;18.06;36.41
73003;BME280;61184;54.356;-8.550;2022-11-20T12:57:43;100126.50;;;18.06;36.64
73003;BME280;61184;54.356;-8.550;2022-11-20T13:00:11;100128.47;;;17.93;36.50
73003;BME280;61184;54.356;-8.550;2022-11-20T13:02:36;100132.61;;;18.37;36.60
73003;BME280;61184;54.356;-8.550;2022-11-20T13:05:04;100131.75;;;18.34;36.70